sensor_id;sensor_type;location;lat;lon;timestamp;pressure;altitude;pressure_sealevel;temperature;humidity
16255;BME280;8235;52.198;9.904;2023-03-13T00:01:21;99736.50;;;8.07;89.34
16255;BME280;8235;52.198;9.904;2023-03-13T00:03:48;99737.47;;;8.06;89.49
16255;BME280;8235;52.198;9.904;2023-03-13T00:06:14;99727.94;;;8.04;88.92
16255;BME280;8235;52.198;9.904;2023-03-13T00:08:41;99728.16;;;8.00;88.71
16255;BME280;8235;52.198;9.904;2023-03-13T00:11:10;99726.44;;;7.99;89.38
16255;BME280;8235;52.198;9.904;2023-03-13T00:13:37;99711.59;;;7.97;88.80
16255;BME280;8235;52.198;9.904;2023-03-13T00:16:06;99722.00;;;8.00;88.72
16255;BME280;8235;52.198;9.904;2023-03-13T00:18:34;99711.28;;;8.01;88.36
16255;BME280;8235;52.198;9.904;2023-03-13T00:21:02;99712.34;;;7.99;89.39
16255;BME280;8235;52.198;9.904;2023-03-13T00:23:29;99703.44;;;8.00;89.80
16255;BME280;8235;52.198;9.904;2023-03-13T00:25:56;99697.28;;;7.99;88.51
16255;BME280;8235;52.198;9.904;2023-03-13T00:28:23;99700.97;;;7.97;89.24
16255;BME280;8235;52.198;9.904;2023-03-13T00:30:50;99697.38;;;7.98;89.34
16255;BME280;8235;52.198;9.904;2023-03-13T00:33:18;99690.06;;;8.01;89.23
16255;BME280;8235;52.198;9.904;2023-03-13T00:35:44;99693.47;;;8.04;89.74
16255;BME280;8235;52.198;9.904;2023-03-13T00:38:10;99700.56;;;8.03;88.85
16255;BME280;8235;52.198;9.904;2023-03-13T00:40:37;99690.59;;;8.07;89.21
16255;BME280;8235;52.198;9.904;2023-03-13T00:43:03;99689.00;;;8.04;89.36
16255;BME280;8235;52.198;9.904;2023-03-13T00:45:30;99683.72;;;8.04;89.05
16255;BME280;8235;52.198;9.904;2023-03-13T00:47:56;99668.75;;;8.03;88.97
16255;BME280;8235;52.198;9.904;2023-03-13T00:50:24;99683.72;;;8.04;89.01
16255;BME280;8235;52.198;9.904;2023-03-13T00:52:50;99678.41;;;8.04;89.05
16255;BME280;8235;52.198;9.904;2023-03-13T00:55:17;99672.16;;;8.05;89.02
16255;BME280;8235;52.198;9.904;2023-03-13T00:57:43;99672.16;;;8.05;88.40
16255;BME280;8235;52.198;9.904;2023-03-13T01:00:11;99662.16;;;8.09;88.23
16255;BME280;8235;52.198;9.904;2023-03-13T01:02:40;99663.75;;;8.11;88.57
16255;BME280;8235;52.198;9.904;2023-03-13T01:05:08;99666.19;;;8.14;88.15
16255;BME280;8235;52.198;9.904;2023-03-13T01:07:36;99658.25;;;8.14;87.89
16255;BME280;8235;52.198;9.904;2023-03-13T01:10:03;99656.53;;;8.13;88.70
16255;BME280;8235;52.198;9.904;2023-03-13T01:12:29;99649.34;;;8.15;88.01
16255;BME280;8235;52.198;9.904;2023-03-13T01:14:56;99649.13;;;8.18;87.78
16255;BME280;8235;52.198;9.904;2023-03-13T01:17:23;99646.59;;;8.17;88.33
16255;BME280;8235;52.198;9.904;2023-03-13T01:19:49;99643.72;;;8.20;87.56
16255;BME280;8235;52.198;9.904;2023-03-13T01:22:16;99634.59;;;8.24;88.05
16255;BME280;8235;52.198;9.904;2023-03-13T01:24:44;99640.50;;;8.27;87.55
16255;BME280;8235;52.198;9.904;2023-03-13T01:27:14;99639.66;;;8.27;87.69
16255;BME280;8235;52.198;9.904;2023-03-13T01:29:40;99627.16;;;8.29;86.59
16255;BME280;8235;52.198;9.904;2023-03-13T01:32:07;99630.66;;;8.29;87.42
16255;BME280;8235;52.198;9.904;2023-03-13T01:34:34;99616.25;;;8.33;86.73
16255;BME280;8235;52.198;9.904;2023-03-13T01:37:00;99615.31;;;8.34;86.47
16255;BME280;8235;52.198;9.904;2023-03-13T01:39:27;99608.19;;;8.35;86.55
16255;BME280;8235;52.198;9.904;2023-03-13T01:41:54;99611.69;;;8.35;86.27
16255;BME280;8235;52.198;9.904;2023-03-13T01:44:23;99603.63;;;8.37;86.84
16255;BME280;8235;52.198;9.904;2023-03-13T01:46:50;99600.88;;;8.39;86.52
16255;BME280;8235;52.198;9.904;2023-03-13T01:49:18;99593.75;;;8.39;86.56
16255;BME280;8235;52.198;9.904;2023-03-13T01:51:48;99587.50;;;8.40;86.95
16255;BME280;8235;52.198;9.904;2023-03-13T01:54:19;99591.00;;;8.41;86.42
16255;BME280;8235;52.198;9.904;2023-03-13T01:56:50;99573.03;;;8.44;86.62
16255;BME280;8235;52.198;9.904;2023-03-13T01:59:22;99572.19;;;8.44;86.45
16255;BME280;8235;52.198;9.904;2023-03-13T02:01:51;99558.81;;;8.45;85.87
16255;BME280;8235;52.198;9.904;2023-03-13T02:04:20;99557.97;;;8.45;86.31
16255;BME280;8235;52.198;9.904;2023-03-13T02:06:50;99537.59;;;8.45;86.68
16255;BME280;8235;52.198;9.904;2023-03-13T02:09:21;99534.19;;;8.43;86.42
16255;BME280;8235;52.198;9.904;2023-03-13T02:11:53;99524.66;;;8.41;87.10
16255;BME280;8235;52.198;9.904;2023-03-13T02:14:26;99524.88;;;8.38;87.28
16255;BME280;8235;52.198;9.904;2023-03-13T02:16:54;99518.09;;;8.33;86.98
16255;BME280;8235;52.198;9.904;2023-03-13T02:19:27;99518.38;;;8.29;87.61
16255;BME280;8235;52.198;9.904;2023-03-13T02:22:02;99502.78;;;8.24;87.96
16255;BME280;8235;52.198;9.904;2023-03-13T02:24:38;99496.03;;;8.20;88.40
16255;BME280;8235;52.198;9.904;2023-03-13T02:27:11;99493.72;;;8.16;88.18
16255;BME280;8235;52.198;9.904;2023-03-13T02:29:37;99491.38;;;8.11;89.11
16255;BME280;8235;52.198;9.904;2023-03-13T02:32:04;99483.63;;;8.08;88.95
16255;BME280;8235;52.198;9.904;2023-03-13T02:34:32;99479.53;;;8.04;89.95
16255;BME280;8235;52.198;9.904;2023-03-13T02:37:01;99476.25;;;8.00;90.08
16255;BME280;8235;52.198;9.904;2023-03-13T02:39:30;99471.16;;;7.97;90.28
16255;BME280;8235;52.198;9.904;2023-03-13T02:41:59;99453.56;;;7.96;90.95
16255;BME280;8235;52.198;9.904;2023-03-13T02:44:28;99454.50;;;7.95;90.95
16255;BME280;8235;52.198;9.904;2023-03-13T02:46:54;99440.41;;;7.95;91.72
16255;BME280;8235;52.198;9.904;2023-03-13T02:49:24;99447.50;;;7.94;92.07
16255;BME280;8235;52.198;9.904;2023-03-13T02:51:52;99427.91;;;7.97;92.53
16255;BME280;8235;52.198;9.904;2023-03-13T02:54:21;99422.38;;;8.00;92.51
16255;BME280;8235;52.198;9.904;2023-03-13T02:56:51;99410.72;;;8.02;93.63
16255;BME280;8235;52.198;9.904;2023-03-13T02:59:18;99403.25;;;8.08;93.64
16255;BME280;8235;52.198;9.904;2023-03-13T03:01:46;99393.47;;;8.08;93.94
16255;BME280;8235;52.198;9.904;2023-03-13T03:04:17;99396.03;;;8.10;93.36
16255;BME280;8235;52.198;9.904;2023-03-13T03:06:44;99380.31;;;8.19;93.42
16255;BME280;8235;52.198;9.904;2023-03-13T03:09:10;99379.13;;;8.23;93.62
16255;BME280;8235;52.198;9.904;2023-03-13T03:11:37;99375.03;;;8.30;93.17
16255;BME280;8235;52.198;9.904;2023-03-13T03:14:03;99360.75;;;8.33;92.85
16255;BME280;8235;52.198;9.904;2023-03-13T03:16:30;99350.75;;;8.37;92.30
16255;BME280;8235;52.198;9.904;2023-03-13T03:18:58;99353.06;;;8.41;92.64
16255;BME280;8235;52.198;9.904;2023-03-13T03:21:25;99350.53;;;8.40;91.59
16255;BME280;8235;52.198;9.904;2023-03-13T03:23:51;99338.97;;;8.41;91.94
16255;BME280;8235;52.198;9.904;2023-03-13T03:26:18;99334.72;;;8.38;91.69
16255;BME280;8235;52.198;9.904;2023-03-13T03:28:44;99314.34;;;8.39;91.59
16255;BME280;8235;52.198;9.904;2023-03-13T03:31:12;99310.97;;;8.37;92.07
16255;BME280;8235;52.198;9.904;2023-03-13T03:33:39;99295.28;;;8.33;92.38
16255;BME280;8235;52.198;9.904;2023-03-13T03:36:10;99298.88;;;8.32;92.41
16255;BME280;8235;52.198;9.904;2023-03-13T03:38:38;99292.72;;;8.32;92.24
16255;BME280;8235;52.198;9.904;2023-03-13T03:41:05;99293.66;;;8.31;92.25
16255;BME280;8235;52.198;9.904;2023-03-13T03:43:31;99296.22;;;8.32;92.56
16255;BME280;8235;52.198;9.904;2023-03-13T03:45:58;99274.16;;;8.32;92.73
16255;BME280;8235;52.198;9.904;2023-03-13T03:48:24;99264.41;;;8.32;93.48
16255;BME280;8235;52.198;9.904;2023-03-13T03:50:51;99258.13;;;8.33;92.71
16255;BME280;8235;52.198;9.904;2023-03-13T03:53:19;99253.78;;;8.32;93.67
16255;BME280;8235;52.198;9.904;2023-03-13T03:55:45;99253.66;;;8.34;93.84
16255;BME280;8235;52.198;9.904;2023-03-13T03:58:12;99244.88;;;8.33;93.62
16255;BME280;8235;52.198;9.904;2023-03-13T04:00:38;99241.03;;;8.38;94.32
16255;BME280;8235;52.198;9.904;2023-03-13T04:03:08;99247.41;;;8.35;93.71
16255;BME280;8235;52.198;9.904;2023-03-13T04:05:34;99249.22;;;8.34;94.42
16255;BME280;8235;52.198;9.904;2023-03-13T04:08:00;99252.72;;;8.35;94.88
16255;BME280;8235;52.198;9.904;2023-03-13T04:10:28;99240.41;;;8.34;94.41
16255;BME280;8235;52.198;9.904;2023-03-13T04:12:55;99236.69;;;8.37;94.97
16255;BME280;8235;52.198;9.904;2023-03-13T04:15:21;99233.69;;;8.41;94.56
16255;BME280;8235;52.198;9.904;2023-03-13T04:17:48;99228.38;;;8.41;93.97
16255;BME280;8235;52.198;9.904;2023-03-13T04:20:15;99236.44;;;8.40;94.56
16255;BME280;8235;52.198;9.904;2023-03-13T04:22:42;99238.13;;;8.41;93.99
16255;BME280;8235;52.198;9.904;2023-03-13T04:25:09;99234.66;;;8.40;94.64
16255;BME280;8235;52.198;9.904;2023-03-13T04:27:37;99236.06;;;8.44;94.21
16255;BME280;8235;52.198;9.904;2023-03-13T04:30:04;99228.72;;;8.48;94.13
16255;BME280;8235;52.198;9.904;2023-03-13T04:32:31;99220.66;;;8.49;94.41
16255;BME280;8235;52.198;9.904;2023-03-13T04:34:58;99212.81;;;8.48;94.99
16255;BME280;8235;52.198;9.904;2023-03-13T04:37:24;99201.34;;;8.47;94.80
16255;BME280;8235;52.198;9.904;2023-03-13T04:39:51;99193.28;;;8.49;95.34
16255;BME280;8235;52.198;9.904;2023-03-13T04:42:17;99181.94;;;8.47;95.41
16255;BME280;8235;52.198;9.904;2023-03-13T04:44:45;99181.94;;;8.47;96.73
16255;BME280;8235;52.198;9.904;2023-03-13T04:47:11;99179.28;;;8.47;97.07
16255;BME280;8235;52.198;9.904;2023-03-13T04:49:38;99161.56;;;8.47;97.22
16255;BME280;8235;52.198;9.904;2023-03-13T04:52:05;99165.28;;;8.45;98.08
16255;BME280;8235;52.198;9.904;2023-03-13T04:54:32;99159.03;;;8.46;98.51
16255;BME280;8235;52.198;9.904;2023-03-13T04:56:58;99152.97;;;8.44;98.96
16255;BME280;8235;52.198;9.904;2023-03-13T04:59:25;99148.06;;;8.39;100.00
16255;BME280;8235;52.198;9.904;2023-03-13T05:01:53;99142.50;;;8.42;100.00
16255;BME280;8235;52.198;9.904;2023-03-13T05:04:19;99151.06;;;8.46;100.00
16255;BME280;8235;52.198;9.904;2023-03-13T05:06:45;99132.00;;;8.52;100.00
16255;BME280;8235;52.198;9.904;2023-03-13T05:09:12;99106.56;;;8.49;100.00
16255;BME280;8235;52.198;9.904;2023-03-13T05:11:38;99103.06;;;8.49;100.00
16255;BME280;8235;52.198;9.904;2023-03-13T05:14:06;99099.22;;;8.53;100.00
16255;BME280;8235;52.198;9.904;2023-03-13T05:16:33;99101.97;;;8.51;100.00
16255;BME280;8235;52.198;9.904;2023-03-13T05:19:01;99105.72;;;8.49;100.00
16255;BME280;8235;52.198;9.904;2023-03-13T05:21:27;99114.41;;;8.51;100.00
16255;BME280;8235;52.198;9.904;2023-03-13T05:23:54;99112.59;;;8.51;100.00
16255;BME280;8235;52.198;9.904;2023-03-13T05:26:21;99100.91;;;8.54;100.00
16255;BME280;8235;52.198;9.904;2023-03-13T05:28:48;99098.97;;;8.56;100.00
16255;BME280;8235;52.198;9.904;2023-03-13T05:31:14;99095.47;;;8.55;100.00
16255;BME280;8235;52.198;9.904;2023-03-13T05:33:41;99074.00;;;8.58;100.00
16255;BME280;8235;52.198;9.904;2023-03-13T05:36:10;99073.84;;;8.60;100.00
16255;BME280;8235;52.198;9.904;2023-03-13T05:38:37;99084.00;;;8.66;100.00
16255;BME280;8235;52.198;9.904;2023-03-13T05:41:03;99078.44;;;8.69;100.00
16255;BME280;8235;52.198;9.904;2023-03-13T05:43:30;99068.53;;;8.71;100.00
16255;BME280;8235;52.198;9.904;2023-03-13T05:45:56;99057.81;;;8.73;100.00
16255;BME280;8235;52.198;9.904;2023-03-13T05:48:23;99062.59;;;8.79;100.00
16255;BME280;8235;52.198;9.904;2023-03-13T05:50:49;99041.13;;;8.82;100.00
16255;BME280;8235;52.198;9.904;2023-03-13T05:53:17;99038.13;;;8.75;100.00
16255;BME280;8235;52.198;9.904;2023-03-13T05:55:44;99030.31;;;8.74;100.00
16255;BME280;8235;52.198;9.904;2023-03-13T05:58:10;99036.91;;;8.79;100.00
16255;BME280;8235;52.198;9.904;2023-03-13T06:00:37;99050.88;;;8.81;100.00
16255;BME280;8235;52.198;9.904;2023-03-13T06:03:03;99038.59;;;8.80;100.00
16255;BME280;8235;52.198;9.904;2023-03-13T06:05:29;99037.88;;;8.78;100.00
16255;BME280;8235;52.198;9.904;2023-03-13T06:07:56;99025.78;;;8.85;100.00
16255;BME280;8235;52.198;9.904;2023-03-13T06:10:24;99029.88;;;8.89;100.00
16255;BME280;8235;52.198;9.904;2023-03-13T06:12:54;99032.28;;;8.92;100.00
16255;BME280;8235;52.198;9.904;2023-03-13T06:15:21;99006.47;;;8.94;100.00
16255;BME280;8235;52.198;9.904;2023-03-13T06:17:48;99024.28;;;9.03;100.00
16255;BME280;8235;52.198;9.904;2023-03-13T06:20:15;99014.38;;;9.05;100.00
16255;BME280;8235;52.198;9.904;2023-03-13T06:22:42;99030.91;;;9.09;100.00
16255;BME280;8235;52.198;9.904;2023-03-13T06:25:08;99039.00;;;9.08;100.00
16255;BME280;8235;52.198;9.904;2023-03-13T06:27:36;99034.66;;;9.07;100.00
16255;BME280;8235;52.198;9.904;2023-03-13T06:30:03;99024.50;;;9.12;100.00
16255;BME280;8235;52.198;9.904;2023-03-13T06:32:30;99009.66;;;9.09;100.00
16255;BME280;8235;52.198;9.904;2023-03-13T06:34:56;99018.22;;;9.13;100.00
16255;BME280;8235;52.198;9.904;2023-03-13T06:37:23;99014.44;;;9.15;100.00
16255;BME280;8235;52.198;9.904;2023-03-13T06:39:49;99009.13;;;9.15;100.00
16255;BME280;8235;52.198;9.904;2023-03-13T06:42:16;98996.69;;;9.16;100.00
16255;BME280;8235;52.198;9.904;2023-03-13T06:44:44;99016.25;;;9.15;100.00
16255;BME280;8235;52.198;9.904;2023-03-13T06:47:10;99024.94;;;9.17;100.00
16255;BME280;8235;52.198;9.904;2023-03-13T06:49:37;99005.50;;;9.16;100.00
16255;BME280;8235;52.198;9.904;2023-03-13T06:52:03;99019.25;;;9.21;100.00
16255;BME280;8235;52.198;9.904;2023-03-13T06:54:30;99011.88;;;9.25;100.00
16255;BME280;8235;52.198;9.904;2023-03-13T06:56:56;99013.19;;;9.30;100.00
16255;BME280;8235;52.198;9.904;2023-03-13T06:59:23;99009.41;;;9.33;100.00
16255;BME280;8235;52.198;9.904;2023-03-13T07:01:51;99020.59;;;9.36;100.00
16255;BME280;8235;52.198;9.904;2023-03-13T07:04:17;99016.16;;;9.37;100.00
16255;BME280;8235;52.198;9.904;2023-03-13T07:06:44;99006.09;;;9.40;100.00
16255;BME280;8235;52.198;9.904;2023-03-13T07:09:10;99006.44;;;9.47;100.00
16255;BME280;8235;52.198;9.904;2023-03-13T07:11:37;98996.69;;;9.57;100.00
16255;BME280;8235;52.198;9.904;2023-03-13T07:14:03;99009.00;;;9.58;100.00
16255;BME280;8235;52.198;9.904;2023-03-13T07:16:30;99001.75;;;9.60;100.00
16255;BME280;8235;52.198;9.904;2023-03-13T07:18:57;99025.41;;;9.63;100.00
16255;BME280;8235;52.198;9.904;2023-03-13T07:21:24;99027.09;;;9.64;100.00
16255;BME280;8235;52.198;9.904;2023-03-13T07:23:51;99024.88;;;9.69;100.00
16255;BME280;8235;52.198;9.904;2023-03-13T07:26:17;99016.50;;;9.74;100.00
16255;BME280;8235;52.198;9.904;2023-03-13T07:28:44;99015.41;;;9.77;100.00
16255;BME280;8235;52.198;9.904;2023-03-13T07:31:13;99008.75;;;9.82;100.00
16255;BME280;8235;52.198;9.904;2023-03-13T07:33:40;99014.47;;;9.87;100.00
16255;BME280;8235;52.198;9.904;2023-03-13T07:36:13;99010.31;;;9.94;100.00
16255;BME280;8235;52.198;9.904;2023-03-13T07:38:39;99010.19;;;9.96;100.00
16255;BME280;8235;52.198;9.904;2023-03-13T07:41:10;99012.47;;;10.00;100.00
16255;BME280;8235;52.198;9.904;2023-03-13T07:43:37;99018.34;;;10.04;100.00
16255;BME280;8235;52.198;9.904;2023-03-13T07:46:04;99016.13;;;10.09;100.00
16255;BME280;8235;52.198;9.904;2023-03-13T07:48:33;99012.50;;;10.10;100.00
16255;BME280;8235;52.198;9.904;2023-03-13T07:51:00;99038.81;;;10.13;100.00
16255;BME280;8235;52.198;9.904;2023-03-13T07:53:28;99030.22;;;10.21;100.00
16255;BME280;8235;52.198;9.904;2023-03-13T07:55:57;99022.78;;;10.24;100.00
16255;BME280;8235;52.198;9.904;2023-03-13T07:58:25;99030.63;;;10.26;100.00
16255;BME280;8235;52.198;9.904;2023-03-13T08:00:52;99031.09;;;10.31;100.00
16255;BME280;8235;52.198;9.904;2023-03-13T08:03:19;99046.94;;;10.32;100.00
16255;BME280;8235;52.198;9.904;2023-03-13T08:05:46;99034.31;;;10.34;100.00
16255;BME280;8235;52.198;9.904;2023-03-13T08:08:13;99032.78;;;10.41;100.00
16255;BME280;8235;52.198;9.904;2023-03-13T08:10:43;99038.81;;;10.43;100.00
16255;BME280;8235;52.198;9.904;2023-03-13T08:13:10;99039.09;;;10.40;100.00
16255;BME280;8235;52.198;9.904;2023-03-13T08:15:36;99040.50;;;10.44;100.00
16255;BME280;8235;52.198;9.904;2023-03-13T08:18:03;99019.22;;;10.44;100.00
16255;BME280;8235;52.198;9.904;2023-03-13T08:20:29;99029.34;;;10.51;100.00
16255;BME280;8235;52.198;9.904;2023-03-13T08:22:56;99031.03;;;10.52;100.00
16255;BME280;8235;52.198;9.904;2023-03-13T08:25:23;99050.50;;;10.52;100.00
16255;BME280;8235;52.198;9.904;2023-03-13T08:27:51;99037.31;;;10.51;100.00
16255;BME280;8235;52.198;9.904;2023-03-13T08:30:17;99062.97;;;10.52;100.00
16255;BME280;8235;52.198;9.904;2023-03-13T08:32:44;99037.31;;;10.51;100.00
16255;BME280;8235;52.198;9.904;2023-03-13T08:35:10;99029.19;;;10.52;100.00
16255;BME280;8235;52.198;9.904;2023-03-13T08:37:37;99034.53;;;10.52;100.00
16255;BME280;8235;52.198;9.904;2023-03-13T08:40:04;99036.63;;;10.58;100.00
16255;BME280;8235;52.198;9.904;2023-03-13T08:42:35;99011.28;;;10.64;100.00
16255;BME280;8235;52.198;9.904;2023-03-13T08:45:04;98993.78;;;10.71;100.00
16255;BME280;8235;52.198;9.904;2023-03-13T08:47:31;99012.56;;;10.79;100.00
16255;BME280;8235;52.198;9.904;2023-03-13T08:49:57;99008.66;;;10.83;100.00
16255;BME280;8235;52.198;9.904;2023-03-13T08:52:24;98988.88;;;10.86;100.00
16255;BME280;8235;52.198;9.904;2023-03-13T08:54:50;99006.28;;;10.99;100.00
16255;BME280;8235;52.198;9.904;2023-03-13T08:57:17;98999.97;;;11.00;100.00
16255;BME280;8235;52.198;9.904;2023-03-13T08:59:43;99010.75;;;10.99;100.00
16255;BME280;8235;52.198;9.904;2023-03-13T09:02:11;99007.53;;;11.05;100.00
16255;BME280;8235;52.198;9.904;2023-03-13T09:04:44;98993.81;;;11.09;100.00
16255;BME280;8235;52.198;9.904;2023-03-13T09:07:10;98994.47;;;11.11;100.00
16255;BME280;8235;52.198;9.904;2023-03-13T09:09:37;98985.94;;;11.18;100.00
16255;BME280;8235;52.198;9.904;2023-03-13T09:12:03;98977.38;;;11.24;100.00
16255;BME280;8235;52.198;9.904;2023-03-13T09:14:30;98985.38;;;11.24;100.00
16255;BME280;8235;52.198;9.904;2023-03-13T09:16:56;98983.28;;;11.27;100.00
16255;BME280;8235;52.198;9.904;2023-03-13T09:19:25;98981.84;;;11.33;100.00
16255;BME280;8235;52.198;9.904;2023-03-13T09:21:51;98986.63;;;11.39;100.00
16255;BME280;8235;52.198;9.904;2023-03-13T09:24:17;98987.47;;;11.39;100.00
16255;BME280;8235;52.198;9.904;2023-03-13T09:26:44;98980.56;;;11.46;100.00
16255;BME280;8235;52.198;9.904;2023-03-13T09:29:10;98981.25;;;11.48;100.00
16255;BME280;8235;52.198;9.904;2023-03-13T09:31:37;98975.78;;;11.50;100.00
16255;BME280;8235;52.198;9.904;2023-03-13T09:34:05;98958.81;;;11.51;100.00
16255;BME280;8235;52.198;9.904;2023-03-13T09:36:33;98965.97;;;11.60;99.52
16255;BME280;8235;52.198;9.904;2023-03-13T09:39:00;98963.69;;;11.65;98.86
16255;BME280;8235;52.198;9.904;2023-03-13T09:41:32;98947.38;;;11.68;98.63
16255;BME280;8235;52.198;9.904;2023-03-13T09:44:04;98954.72;;;11.76;97.94
16255;BME280;8235;52.198;9.904;2023-03-13T09:46:37;98939.25;;;11.79;97.75
16255;BME280;8235;52.198;9.904;2023-03-13T09:49:11;98950.78;;;11.80;97.38
16255;BME280;8235;52.198;9.904;2023-03-13T09:51:42;98948.94;;;11.80;97.25
16255;BME280;8235;52.198;9.904;2023-03-13T09:54:21;98937.97;;;11.83;97.21
16255;BME280;8235;52.198;9.904;2023-03-13T09:56:53;98951.16;;;11.85;96.42
16255;BME280;8235;52.198;9.904;2023-03-13T09:59:25;98955.06;;;11.91;96.47
16255;BME280;8235;52.198;9.904;2023-03-13T10:01:54;98947.19;;;11.99;95.90
16255;BME280;8235;52.198;9.904;2023-03-13T10:04:28;98935.06;;;12.04;95.41
16255;BME280;8235;52.198;9.904;2023-03-13T10:06:58;98941.94;;;12.07;95.31
16255;BME280;8235;52.198;9.904;2023-03-13T10:09:27;98949.09;;;12.06;95.07
16255;BME280;8235;52.198;9.904;2023-03-13T10:11:59;98953.00;;;12.12;95.40
16255;BME280;8235;52.198;9.904;2023-03-13T10:14:29;98954.41;;;12.16;95.05
16255;BME280;8235;52.198;9.904;2023-03-13T10:17:01;98955.91;;;12.18;94.89
16255;BME280;8235;52.198;9.904;2023-03-13T10:19:33;98946.88;;;12.29;94.40
16255;BME280;8235;52.198;9.904;2023-03-13T10:22:18;98948.41;;;12.32;94.32
16255;BME280;8235;52.198;9.904;2023-03-13T10:24:49;98946.28;;;12.35;94.30
16255;BME280;8235;52.198;9.904;2023-03-13T10:27:18;98934.44;;;12.38;94.35
16255;BME280;8235;52.198;9.904;2023-03-13T10:29:44;98940.03;;;12.44;93.58
16255;BME280;8235;52.198;9.904;2023-03-13T10:32:13;98945.38;;;12.44;93.43
16255;BME280;8235;52.198;9.904;2023-03-13T10:34:51;98941.72;;;12.45;93.35
16255;BME280;8235;52.198;9.904;2023-03-13T10:37:24;98946.47;;;12.51;93.39
16255;BME280;8235;52.198;9.904;2023-03-13T10:39:52;98951.31;;;12.56;93.54
16255;BME280;8235;52.198;9.904;2023-03-13T10:42:22;98950.19;;;12.59;93.37
16255;BME280;8235;52.198;9.904;2023-03-13T10:44:55;98954.00;;;12.56;93.83
16255;BME280;8235;52.198;9.904;2023-03-13T10:47:23;98961.88;;;12.58;93.99
16255;BME280;8235;52.198;9.904;2023-03-13T10:49:51;98949.19;;;12.60;94.22
16255;BME280;8235;52.198;9.904;2023-03-13T10:52:31;98952.56;;;12.62;94.56
16255;BME280;8235;52.198;9.904;2023-03-13T10:54:59;98949.75;;;12.63;95.16
16255;BME280;8235;52.198;9.904;2023-03-13T10:57:30;98940.00;;;12.72;95.29
16255;BME280;8235;52.198;9.904;2023-03-13T10:59:57;98931.34;;;12.78;95.92
16255;BME280;8235;52.198;9.904;2023-03-13T11:02:27;98930.22;;;12.80;95.53
16255;BME280;8235;52.198;9.904;2023-03-13T11:04:56;98926.94;;;12.86;96.22
16255;BME280;8235;52.198;9.904;2023-03-13T11:07:31;98926.00;;;12.96;95.49
16255;BME280;8235;52.198;9.904;2023-03-13T11:10:00;98910.50;;;12.99;94.47
16255;BME280;8235;52.198;9.904;2023-03-13T11:12:28;98909.56;;;13.08;94.44
16255;BME280;8235;52.198;9.904;2023-03-13T11:15:00;98915.28;;;13.13;93.40
16255;BME280;8235;52.198;9.904;2023-03-13T11:17:32;98900.03;;;13.24;92.55
16255;BME280;8235;52.198;9.904;2023-03-13T11:20:06;98901.38;;;13.28;92.08
16255;BME280;8235;52.198;9.904;2023-03-13T11:22:44;98875.41;;;13.38;91.64
16255;BME280;8235;52.198;9.904;2023-03-13T11:25:19;98897.50;;;13.48;90.17
16255;BME280;8235;52.198;9.904;2023-03-13T11:27:52;98895.50;;;13.50;89.42
16255;BME280;8235;52.198;9.904;2023-03-13T11:30:39;98887.88;;;13.55;89.42
16255;BME280;8235;52.198;9.904;2023-03-13T11:33:19;98878.88;;;13.64;88.61
16255;BME280;8235;52.198;9.904;2023-03-13T11:35:49;98891.63;;;13.70;87.94
16255;BME280;8235;52.198;9.904;2023-03-13T11:38:26;98878.59;;;13.75;87.53
16255;BME280;8235;52.198;9.904;2023-03-13T11:41:02;98882.97;;;13.84;86.89
16255;BME280;8235;52.198;9.904;2023-03-13T11:43:41;98874.47;;;13.89;86.06
16255;BME280;8235;52.198;9.904;2023-03-13T11:46:40;98874.16;;;13.92;85.54
16255;BME280;8235;52.198;9.904;2023-03-13T11:52:15;98852.28;;;14.05;84.25
16255;BME280;8235;52.198;9.904;2023-03-13T11:55:08;98856.69;;;14.14;82.76
16255;BME280;8235;52.198;9.904;2023-03-13T11:57:42;98858.69;;;14.20;81.78
16255;BME280;8235;52.198;9.904;2023-03-13T12:00:18;98857.03;;;14.27;81.63
16255;BME280;8235;52.198;9.904;2023-03-13T12:02:49;98852.19;;;14.31;81.66
16255;BME280;8235;52.198;9.904;2023-03-13T12:05:18;98855.41;;;14.42;81.55
16255;BME280;8235;52.198;9.904;2023-03-13T12:07:48;98844.38;;;14.45;80.48
16255;BME280;8235;52.198;9.904;2023-03-13T12:10:21;98864.97;;;14.53;80.40
16255;BME280;8235;52.198;9.904;2023-03-13T12:12:56;98840.03;;;14.61;79.78
16255;BME280;8235;52.198;9.904;2023-03-13T12:15:27;98840.38;;;14.66;79.44
16255;BME280;8235;52.198;9.904;2023-03-13T12:17:57;98841.22;;;14.66;78.23
16255;BME280;8235;52.198;9.904;2023-03-13T12:20:28;98835.84;;;14.66;78.06
16255;BME280;8235;52.198;9.904;2023-03-13T12:23:13;98837.38;;;14.69;78.10
16255;BME280;8235;52.198;9.904;2023-03-13T12:25:46;98840.53;;;14.72;78.19
16255;BME280;8235;52.198;9.904;2023-03-13T12:28:20;98826.31;;;14.80;78.13
16255;BME280;8235;52.198;9.904;2023-03-13T12:30:52;98829.66;;;14.82;77.55
16255;BME280;8235;52.198;9.904;2023-03-13T12:33:25;98832.84;;;14.85;77.56
16255;BME280;8235;52.198;9.904;2023-03-13T12:35:58;98825.28;;;14.89;77.64
16255;BME280;8235;52.198;9.904;2023-03-13T12:38:30;98822.59;;;14.97;77.06
16255;BME280;8235;52.198;9.904;2023-03-13T12:41:10;98809.84;;;15.07;76.17
16255;BME280;8235;52.198;9.904;2023-03-13T12:43:41;98804.81;;;15.20;75.19
16255;BME280;8235;52.198;9.904;2023-03-13T12:46:23;98771.41;;;15.31;74.42
16255;BME280;8235;52.198;9.904;2023-03-13T12:49:05;98798.84;;;15.41;73.96
16255;BME280;8235;52.198;9.904;2023-03-13T12:51:51;98772.69;;;15.51;73.02
16255;BME280;8235;52.198;9.904;2023-03-13T12:54:39;98760.06;;;15.68;70.18
16255;BME280;8235;52.198;9.904;2023-03-13T12:57:32;98752.66;;;15.70;70.32
16255;BME280;8235;52.198;9.904;2023-03-13T13:00:13;98761.31;;;15.80;69.52
16255;BME280;8235;52.198;9.904;2023-03-13T13:02:41;98775.72;;;15.87;68.83
16255;BME280;8235;52.198;9.904;2023-03-13T13:05:17;98741.75;;;15.94;67.48
16255;BME280;8235;52.198;9.904;2023-03-13T13:07:52;98746.78;;;15.97;67.35
16255;BME280;8235;52.198;9.904;2023-03-13T13:10:21;98735.16;;;16.05;67.39
16255;BME280;8235;52.198;9.904;2023-03-13T13:13:18;98728.88;;;16.13;66.70
16255;BME280;8235;52.198;9.904;2023-03-13T13:15:59;98731.22;;;16.16;65.33
16255;BME280;8235;52.198;9.904;2023-03-13T13:18:27;98729.84;;;16.20;64.90
16255;BME280;8235;52.198;9.904;2023-03-13T13:21:22;98713.50;;;16.29;65.17
16255;BME280;8235;52.198;9.904;2023-03-13T13:23:51;98715.34;;;16.29;63.64
16255;BME280;8235;52.198;9.904;2023-03-13T13:26:38;98700.69;;;16.31;64.42